createdAt,value
2022-08-27T00:01:17.693Z,53.54
2022-08-27T00:03:19.655Z,53.65
2022-08-27T00:05:21.786Z,53.54
2022-08-27T00:07:23.469Z,53.20
2022-08-27T00:09:27.028Z,52.89
2022-08-27T00:11:29.250Z,53.26
2022-08-27T00:13:30.944Z,53.76
2022-08-27T00:15:33.427Z,53.35
2022-08-27T00:17:35.524Z,53.15
2022-08-27T00:19:37.776Z,53.39
2022-08-27T00:21:39.490Z,53.91
2022-08-27T00:23:41.255Z,54.54
2022-08-27T00:25:43.210Z,54.98
2022-08-27T00:27:45.515Z,55.03
2022-08-27T00:29:47.984Z,55.37
2022-08-27T00:31:53.297Z,55.39
2022-08-27T00:33:56.213Z,55.77
2022-08-27T00:35:58.059Z,55.54
2022-08-27T00:38:00.186Z,55.80
2022-08-27T00:40:02.253Z,55.78
2022-08-27T00:42:07.789Z,55.75
2022-08-27T00:44:09.847Z,55.75
2022-08-27T00:46:19.359Z,55.88
2022-08-27T00:48:24.356Z,55.88
2022-08-27T00:50:49.032Z,55.64
2022-08-27T00:52:56.955Z,55.43
2022-08-27T00:55:07.021Z,55.67
2022-08-27T00:57:08.770Z,55.68
2022-08-27T00:59:12.508Z,55.66
2022-08-27T01:01:17.669Z,55.53
2022-08-27T01:03:19.889Z,55.81
2022-08-27T01:05:25.534Z,56.00
2022-08-27T01:07:29.851Z,56.25
2022-08-27T01:09:31.822Z,57.10
2022-08-27T01:11:33.996Z,57.76
2022-08-27T01:13:53.447Z,58.15
2022-08-27T01:15:59.189Z,58.12
2022-08-27T01:18:04.852Z,57.76
2022-08-27T01:20:09.645Z,57.07
2022-08-27T01:22:24.641Z,56.85
2022-08-27T01:24:39.074Z,57.84
2022-08-27T01:26:41.941Z,57.85
2022-08-27T01:28:44.220Z,58.02
2022-08-27T01:30:45.862Z,57.76
2022-08-27T01:32:48.835Z,57.46
2022-08-27T01:34:51.428Z,57.48
2022-08-27T01:36:54.688Z,57.46
2022-08-27T01:38:59.747Z,57.54
2022-08-27T01:41:02.710Z,57.52
2022-08-27T01:43:04.728Z,56.58
2022-08-27T01:45:10.816Z,56.12
2022-08-27T01:47:12.505Z,55.77
2022-08-27T01:49:14.201Z,55.42
2022-08-27T01:51:16.453Z,55.80
2022-08-27T01:53:23.641Z,56.63
2022-08-27T01:55:26.595Z,57.98
2022-08-27T01:57:28.650Z,59.13
2022-08-27T01:59:39.679Z,59.36
2022-08-27T02:01:41.989Z,59.68
2022-08-27T02:03:44.730Z,59.43
2022-08-27T02:05:48.541Z,59.99
2022-08-27T02:07:50.708Z,61.56
2022-08-27T02:09:52.453Z,61.89
2022-08-27T02:11:54.217Z,61.67
2022-08-27T02:13:55.929Z,61.71
2022-08-27T02:15:57.788Z,61.59
2022-08-27T02:17:59.486Z,61.86
2022-08-27T02:20:01.761Z,61.99
2022-08-27T02:22:03.557Z,62.04
2022-08-27T02:24:05.590Z,62.55
2022-08-27T02:26:07.286Z,62.43
2022-08-27T02:28:09.565Z,61.22
2022-08-27T02:30:14.181Z,61.03
2022-08-27T02:32:24.284Z,60.51
2022-08-27T02:34:34.553Z,60.77
2022-08-27T02:36:37.540Z,60.89
2022-08-27T02:38:40.316Z,60.09
2022-08-27T02:40:42.040Z,60.27
2022-08-27T02:42:44.719Z,60.76
2022-08-27T02:44:47.262Z,60.68
2022-08-27T02:46:48.930Z,61.09
2022-08-27T02:48:55.522Z,61.42
2022-08-27T02:50:57.161Z,61.07
2022-08-27T02:52:58.822Z,60.36
2022-08-27T02:55:00.815Z,60.01
2022-08-27T02:57:02.468Z,59.50
2022-08-27T02:59:04.544Z,59.66
2022-08-27T03:01:06.402Z,58.34
2022-08-27T03:03:13.601Z,58.34
2022-08-27T03:05:16.762Z,58.46
2022-08-27T03:07:19.169Z,58.51
2022-08-27T03:09:21.349Z,58.65
2022-08-27T03:11:24.102Z,58.63
2022-08-27T03:13:26.266Z,59.53
2022-08-27T03:15:28.376Z,59.85
2022-08-27T03:17:48.660Z,60.17
2022-08-27T03:19:50.763Z,60.94
2022-08-27T03:21:54.918Z,60.95
2022-08-27T03:23:57.002Z,60.93
2022-08-27T03:26:01.447Z,60.93
2022-08-27T03:28:03.873Z,60.24
2022-08-27T03:30:11.699Z,60.59
2022-08-27T03:32:13.421Z,60.81
2022-08-27T03:34:15.305Z,60.61
2022-08-27T03:36:21.764Z,60.52
2022-08-27T03:38:23.487Z,60.37
2022-08-27T03:40:25.280Z,60.84
2022-08-27T03:42:27.300Z,60.81
2022-08-27T03:44:28.934Z,61.08
2022-08-27T03:46:31.211Z,60.78
2022-08-27T03:48:34.116Z,60.81
2022-08-27T03:50:38.450Z,60.74
2022-08-27T03:52:40.213Z,60.62
2022-08-27T03:54:42.058Z,60.86
2022-08-27T03:56:43.714Z,60.40
2022-08-27T03:58:45.462Z,60.31
2022-08-27T04:00:47.442Z,59.88
2022-08-27T04:02:49.305Z,60.14
2022-08-27T04:04:51.191Z,60.07
2022-08-27T04:06:52.918Z,59.73
2022-08-27T04:08:57.670Z,59.29
2022-08-27T04:10:59.430Z,59.11
2022-08-27T04:13:01.173Z,58.76
2022-08-27T04:15:03.759Z,58.15
2022-08-27T04:17:05.575Z,58.40
2022-08-27T04:19:08.099Z,58.60
2022-08-27T04:21:12.074Z,58.55
2022-08-27T04:23:14.167Z,58.26
2022-08-27T04:25:15.852Z,57.79
2022-08-27T04:27:18.300Z,57.88
2022-08-27T04:29:20.177Z,57.75
2022-08-27T04:31:22.023Z,57.76
2022-08-27T04:33:23.720Z,57.75
2022-08-27T04:35:25.541Z,57.79
2022-08-27T04:37:31.933Z,57.94
2022-08-27T04:39:33.756Z,57.69
2022-08-27T04:41:35.678Z,57.32
2022-08-27T04:43:37.398Z,57.43
2022-08-27T04:45:46.524Z,57.64
2022-08-27T04:47:48.269Z,57.51
2022-08-27T04:49:50.092Z,57.31
2022-08-27T04:51:52.206Z,57.03
2022-08-27T04:53:54.232Z,56.87
2022-08-27T04:55:57.130Z,56.50
2022-08-27T04:57:58.770Z,56.66
2022-08-27T05:00:00.581Z,56.55
2022-08-27T05:02:04.676Z,56.47
2022-08-27T05:04:07.718Z,56.20
2022-08-27T05:06:09.474Z,56.45
2022-08-27T05:08:14.481Z,55.75
2022-08-27T05:10:16.423Z,56.20
2022-08-27T05:12:18.116Z,56.73
2022-08-27T05:14:21.774Z,56.82
2022-08-27T05:16:23.496Z,56.49
2022-08-27T05:18:25.573Z,56.35
2022-08-27T05:20:28.077Z,56.14
2022-08-27T05:22:29.859Z,56.12
2022-08-27T05:24:32.558Z,56.25
2022-08-27T05:26:35.929Z,55.79
2022-08-27T05:28:37.622Z,55.92
2022-08-27T05:30:49.301Z,55.96
2022-08-27T05:32:57.081Z,55.23
2022-08-27T05:34:58.844Z,55.04
2022-08-27T05:37:00.764Z,55.54
2022-08-27T05:39:04.814Z,55.93
2022-08-27T05:41:12.044Z,55.43
2022-08-27T05:43:15.978Z,55.39
2022-08-27T05:45:17.785Z,55.44
2022-08-27T05:47:19.449Z,54.84
2022-08-27T05:49:21.855Z,54.85
2022-08-27T05:51:28.346Z,54.49
2022-08-27T05:53:30.347Z,54.18
2022-08-27T05:55:37.560Z,53.99
2022-08-27T05:57:39.218Z,53.86
2022-08-27T05:59:59.600Z,54.41
2022-08-27T06:02:01.331Z,54.52
2022-08-27T06:04:04.472Z,53.97
2022-08-27T06:06:09.333Z,54.49
2022-08-27T06:08:11.312Z,55.39
2022-08-27T06:10:13.444Z,54.87
2022-08-27T06:12:15.109Z,54.83
2022-08-27T06:14:17.066Z,54.65
2022-08-27T06:16:19.785Z,54.61
2022-08-27T06:18:21.498Z,54.51
2022-08-27T06:20:23.897Z,54.12
2022-08-27T06:22:25.654Z,52.99
2022-08-27T06:24:27.507Z,52.48
2022-08-27T06:26:29.502Z,52.47
2022-08-27T06:28:31.482Z,52.38
2022-08-27T06:30:33.302Z,52.19
2022-08-27T06:32:35.055Z,50.27
2022-08-27T06:34:37.677Z,50.09
2022-08-27T06:36:41.664Z,50.94
2022-08-27T06:38:43.575Z,50.90
2022-08-27T06:40:46.342Z,51.56
2022-08-27T06:42:48.270Z,51.48
2022-08-27T06:44:50.066Z,51.46
2022-08-27T06:46:51.933Z,50.67
2022-08-27T06:48:58.590Z,50.99
2022-08-27T06:51:00.827Z,50.33
2022-08-27T06:53:02.522Z,50.43
2022-08-27T06:55:05.067Z,49.50
2022-08-27T06:57:06.782Z,48.70
2022-08-27T06:59:11.968Z,49.04
2022-08-27T07:01:16.097Z,49.16
2022-08-27T07:03:18.001Z,49.17
2022-08-27T07:05:19.819Z,48.54
2022-08-27T07:07:28.058Z,48.37
2022-08-27T07:09:37.036Z,48.57
2022-08-27T07:11:38.998Z,48.55
2022-08-27T07:13:41.682Z,48.25
2022-08-27T07:15:43.504Z,48.27
2022-08-27T07:17:45.291Z,48.45
2022-08-27T07:19:47.036Z,48.70
2022-08-27T07:21:48.707Z,49.32
2022-08-27T07:23:52.833Z,48.08
2022-08-27T07:25:54.500Z,47.75
2022-08-27T07:27:56.899Z,47.65
2022-08-27T07:29:59.420Z,47.68
2022-08-27T07:32:04.496Z,46.84
2022-08-27T07:34:06.554Z,46.56
2022-08-27T07:36:08.484Z,46.47
2022-08-27T07:38:13.639Z,47.01
2022-08-27T07:40:16.447Z,47.69
2022-08-27T07:42:36.839Z,47.41
2022-08-27T07:44:38.538Z,47.89
2022-08-27T07:46:43.457Z,48.61
2022-08-27T07:48:47.684Z,47.61
2022-08-27T07:50:49.823Z,47.61
2022-08-27T07:52:52.074Z,46.99
2022-08-27T07:54:54.571Z,46.53
2022-08-27T07:56:56.324Z,46.47
2022-08-27T07:58:58.124Z,46.01
2022-08-27T08:01:00.020Z,45.85
2022-08-27T08:03:02.003Z,46.18
2022-08-27T08:05:06.273Z,45.52
2022-08-27T08:07:08.137Z,45.51
2022-08-27T08:09:11.539Z,44.96
2022-08-27T08:11:15.642Z,44.39
2022-08-27T08:13:18.562Z,44.30
2022-08-27T08:15:20.367Z,44.16
2022-08-27T08:17:23.127Z,43.63
2022-08-27T08:19:25.111Z,43.61
2022-08-27T08:21:26.958Z,43.71
2022-08-27T08:23:29.568Z,43.36
2022-08-27T08:25:34.592Z,42.78
2022-08-27T08:27:41.790Z,43.15
2022-08-27T08:29:43.672Z,43.77
2022-08-27T08:31:50.011Z,43.55
2022-08-27T08:33:52.294Z,43.18
2022-08-27T08:35:54.597Z,43.11
2022-08-27T08:37:56.330Z,43.03
2022-08-27T08:39:58.166Z,42.44
2022-08-27T08:42:02.491Z,41.66
2022-08-27T08:44:11.911Z,42.08
2022-08-27T08:46:22.522Z,41.85
2022-08-27T08:48:26.478Z,41.60
2022-08-27T08:50:37.864Z,40.53
2022-08-27T08:52:59.395Z,39.68
2022-08-27T08:55:22.114Z,39.21
2022-08-27T08:57:28.449Z,39.50
2022-08-27T08:59:35.268Z,38.11
2022-08-27T09:01:37.230Z,38.48
2022-08-27T09:03:42.287Z,38.54
2022-08-27T09:05:49.762Z,39.43
2022-08-27T09:08:31.900Z,39.29
2022-08-27T09:10:53.380Z,37.84
2022-08-27T09:13:00.080Z,37.32
2022-08-27T09:15:20.649Z,36.58
2022-08-27T09:17:35.409Z,36.52
2022-08-27T09:19:37.974Z,35.64
2022-08-27T09:21:51.102Z,36.13
2022-08-27T09:24:17.370Z,36.10
2022-08-27T09:26:25.833Z,36.31
2022-08-27T09:28:48.519Z,35.75
2022-08-27T09:30:50.209Z,35.57
2022-08-27T09:33:00.713Z,35.72
2022-08-27T09:35:09.095Z,35.40
2022-08-27T09:37:12.716Z,35.10
2022-08-27T09:39:14.558Z,34.69
2022-08-27T09:41:22.647Z,34.60
2022-08-27T09:43:28.427Z,34.55
2022-08-27T09:45:30.971Z,34.17
2022-08-27T09:47:41.894Z,34.31
2022-08-27T09:49:43.908Z,33.23
2022-08-27T09:51:47.020Z,32.62
2022-08-27T09:54:00.056Z,31.77
2022-08-27T09:56:04.285Z,32.28
2022-08-27T09:58:07.585Z,32.01
2022-08-27T10:00:15.709Z,31.84
2022-08-27T10:02:21.320Z,32.06
2022-08-27T10:04:50.709Z,31.18
2022-08-27T10:06:53.540Z,31.09
2022-08-27T10:08:58.357Z,31.04
2022-08-27T10:11:04.722Z,30.96
2022-08-27T10:13:20.968Z,30.78
2022-08-27T10:15:24.936Z,30.88
2022-08-27T10:17:26.677Z,29.71
2022-08-27T10:19:46.617Z,29.59
2022-08-27T10:22:03.294Z,30.82
2022-08-27T10:24:26.561Z,28.68
2022-08-27T10:26:39.615Z,29.10
2022-08-27T10:29:03.708Z,29.19
2022-08-27T10:31:26.971Z,28.09
2022-08-27T10:33:59.307Z,28.75
2022-08-27T10:36:07.559Z,28.06
2022-08-27T10:38:12.545Z,27.81
2022-08-27T10:40:20.283Z,28.50
2022-08-27T10:42:26.414Z,28.57
2022-08-27T10:44:31.564Z,28.37
2022-08-27T10:47:00.675Z,28.61
2022-08-27T10:49:23.393Z,28.80
2022-08-27T10:51:35.507Z,28.94
2022-08-27T10:54:05.996Z,29.01
2022-08-27T10:56:17.336Z,28.79
2022-08-27T10:58:47.579Z,28.36
2022-08-27T11:01:04.061Z,27.97
2022-08-27T11:03:33.301Z,28.71
2022-08-27T11:05:46.927Z,28.11
2022-08-27T11:07:53.899Z,27.99
2022-08-27T11:10:14.391Z,28.34
2022-08-27T11:12:21.905Z,28.01
2022-08-27T11:14:55.282Z,27.25
2022-08-27T11:17:06.217Z,26.52
2022-08-27T11:19:23.344Z,26.60
2022-08-27T11:21:34.873Z,27.38
2022-08-27T11:24:09.017Z,27.23
2022-08-27T11:26:10.720Z,27.50
2022-08-27T11:28:13.164Z,28.00
2022-08-27T11:30:27.493Z,28.09
2022-08-27T11:33:06.846Z,27.83
2022-08-27T11:35:20.811Z,27.57
2022-08-27T11:37:26.705Z,27.90
2022-08-27T11:39:51.833Z,27.77
2022-08-27T11:42:31.254Z,27.03
2022-08-27T11:44:33.520Z,26.32
2022-08-27T11:46:44.239Z,26.81
2022-08-27T11:48:59.823Z,27.22
2022-08-27T11:51:02.438Z,27.44
2022-08-27T11:53:06.265Z,27.58
2022-08-27T11:55:20.348Z,26.69
2022-08-27T11:57:32.002Z,26.98
2022-08-27T11:59:35.193Z,26.65
2022-08-27T12:01:36.716Z,26.25
2022-08-27T12:03:38.680Z,26.90
2022-08-27T12:05:44.783Z,26.95
2022-08-27T12:07:49.769Z,27.18
2022-08-27T12:09:55.033Z,26.68
2022-08-27T12:11:59.745Z,25.72
2022-08-27T12:14:27.088Z,25.38
2022-08-27T12:16:53.376Z,24.92
2022-08-27T12:19:32.451Z,25.61
2022-08-27T12:21:39.867Z,25.76
2022-08-27T12:24:04.764Z,25.05
2022-08-27T12:26:15.685Z,25.76
2022-08-27T12:28:26.565Z,26.02
2022-08-27T12:30:35.310Z,26.08
2022-08-27T12:32:37.074Z,26.34
2022-08-27T12:34:47.801Z,26.18
2022-08-27T12:36:51.229Z,26.18
2022-08-27T12:38:58.274Z,26.13
2022-08-27T12:41:04.103Z,25.81
2022-08-27T12:43:12.870Z,25.57
2022-08-27T12:45:25.812Z,26.02
2022-08-27T12:47:27.774Z,25.15
2022-08-27T12:49:55.683Z,25.52
2022-08-27T12:51:59.294Z,25.07
2022-08-27T12:54:29.951Z,25.06
2022-08-27T12:56:32.015Z,24.78
2022-08-27T12:58:40.311Z,24.65
2022-08-27T13:01:01.131Z,24.55
2022-08-27T13:03:20.690Z,24.64
2022-08-27T13:05:23.850Z,24.71
2022-08-27T13:07:26.196Z,24.85
2022-08-27T13:09:34.281Z,25.05
2022-08-27T13:11:45.583Z,24.61
2022-08-27T13:13:48.442Z,24.82
2022-08-27T13:15:52.344Z,24.86
2022-08-27T13:17:54.145Z,25.33
2022-08-27T13:19:58.985Z,25.15
2022-08-27T13:22:01.533Z,25.74
2022-08-27T13:24:05.660Z,25.79
2022-08-27T13:26:10.940Z,25.35
2022-08-27T13:28:15.134Z,24.86
2022-08-27T13:30:22.983Z,24.78
2022-08-27T13:32:38.645Z,24.80
2022-08-27T13:34:41.084Z,25.19
2022-08-27T13:37:25.513Z,25.94
2022-08-27T13:39:27.891Z,26.81
2022-08-27T13:41:33.554Z,26.65
2022-08-27T13:43:40.665Z,26.78
2022-08-27T13:45:42.733Z,26.32
2022-08-27T13:47:47.148Z,25.86
2022-08-27T13:49:48.792Z,26.25
2022-08-27T13:51:59.480Z,26.04
2022-08-27T13:54:18.429Z,25.76
2022-08-27T13:56:31.734Z,25.60
2022-08-27T13:58:34.789Z,25.72
2022-08-27T14:00:37.873Z,26.08
2022-08-27T14:02:39.571Z,25.46
2022-08-27T14:04:44.040Z,25.37
2022-08-27T14:06:46.994Z,25.25
2022-08-27T14:08:49.002Z,25.15
2022-08-27T14:11:07.079Z,24.58
2022-08-27T14:13:16.248Z,24.64
2022-08-27T14:15:43.459Z,24.45
2022-08-27T14:17:47.001Z,24.42
2022-08-27T14:19:49.667Z,24.68
2022-08-27T14:21:52.592Z,24.93
2022-08-27T14:23:54.344Z,25.04
2022-08-27T14:25:58.665Z,25.63
2022-08-27T14:28:00.741Z,24.86
2022-08-27T14:30:03.231Z,24.87
2022-08-27T14:32:07.448Z,24.88
2022-08-27T14:34:09.101Z,23.83
2022-08-27T14:36:11.278Z,24.37
2022-08-27T14:38:23.102Z,24.29
2022-08-27T14:40:25.252Z,24.68
2022-08-27T14:42:28.610Z,24.13
2022-08-27T14:44:31.142Z,24.50
2022-08-27T14:46:41.473Z,24.63
2022-08-27T14:48:46.293Z,23.79
2022-08-27T14:50:53.656Z,23.84
2022-08-27T14:52:55.397Z,23.65
2022-08-27T14:54:57.246Z,23.12
2022-08-27T14:56:59.097Z,23.24
2022-08-27T14:59:00.757Z,23.23
2022-08-27T15:01:03.725Z,23.40
2022-08-27T15:03:05.386Z,23.62
2022-08-27T15:05:12.094Z,23.89
2022-08-27T15:07:14.354Z,24.25
2022-08-27T15:09:16.086Z,23.65
2022-08-27T15:11:23.753Z,23.83
2022-08-27T15:13:25.472Z,23.41
2022-08-27T15:15:27.080Z,22.82
2022-08-27T15:17:35.250Z,22.41
2022-08-27T15:19:37.343Z,23.22
2022-08-27T15:21:40.381Z,23.74
2022-08-27T15:23:41.903Z,24.08
2022-08-27T15:25:45.307Z,24.64
2022-08-27T15:27:47.071Z,24.63
2022-08-27T15:29:49.404Z,24.30
2022-08-27T15:31:51.368Z,24.55
2022-08-27T15:33:53.027Z,24.07
2022-08-27T15:35:54.779Z,24.08
2022-08-27T15:37:57.346Z,23.96
2022-08-27T15:39:59.153Z,24.19
2022-08-27T15:42:06.605Z,23.98
2022-08-27T15:44:08.956Z,23.80
2022-08-27T15:46:10.711Z,24.04
2022-08-27T15:48:12.759Z,23.70
2022-08-27T15:50:14.810Z,23.49
2022-08-27T15:52:17.725Z,23.56
2022-08-27T15:54:19.509Z,23.46
2022-08-27T15:56:21.416Z,23.57
2022-08-27T15:58:23.095Z,23.38
2022-08-27T16:00:33.739Z,23.07
2022-08-27T16:02:35.691Z,23.43
2022-08-27T16:04:37.317Z,23.38
2022-08-27T16:06:39.221Z,23.58
2022-08-27T16:08:42.341Z,23.35
2022-08-27T16:10:43.939Z,23.84
2022-08-27T16:12:46.296Z,24.28
2022-08-27T16:14:48.189Z,24.44
2022-08-27T16:16:50.544Z,24.18
2022-08-27T16:18:52.473Z,23.88
2022-08-27T16:20:56.576Z,24.37
2022-08-27T16:22:58.472Z,24.05
2022-08-27T16:25:00.261Z,24.41
2022-08-27T16:27:01.949Z,24.60
2022-08-27T16:29:04.898Z,24.71
2022-08-27T16:31:06.593Z,24.77
2022-08-27T16:33:14.379Z,25.01
2022-08-27T16:35:16.729Z,25.53
2022-08-27T16:37:18.351Z,26.02
2022-08-27T16:39:20.047Z,25.85
2022-08-27T16:41:23.115Z,26.00
2022-08-27T16:43:27.066Z,25.81
2022-08-27T16:45:28.754Z,26.17
2022-08-27T16:47:30.418Z,26.86
2022-08-27T16:49:52.368Z,26.45
2022-08-27T16:51:54.085Z,27.08
2022-08-27T16:53:55.891Z,27.36
2022-08-27T16:55:57.593Z,27.22
2022-08-27T16:57:59.684Z,27.85
2022-08-27T17:00:01.507Z,28.14
2022-08-27T17:02:03.786Z,28.67
2022-08-27T17:04:15.402Z,29.06
2022-08-27T17:06:21.781Z,29.33
2022-08-27T17:08:26.232Z,29.76
2022-08-27T17:10:33.325Z,29.54
2022-08-27T17:12:34.949Z,30.24
2022-08-27T17:14:39.416Z,30.06
2022-08-27T17:16:43.450Z,30.25
2022-08-27T17:18:46.181Z,30.11
2022-08-27T17:20:52.407Z,30.67
2022-08-27T17:22:55.785Z,31.25
2022-08-27T17:24:57.657Z,31.21
2022-08-27T17:26:59.379Z,31.35
2022-08-27T17:29:01.317Z,31.70
2022-08-27T17:31:03.051Z,31.60
2022-08-27T17:33:05.018Z,32.14
2022-08-27T17:35:07.793Z,31.90
2022-08-27T17:37:09.462Z,32.09
2022-08-27T17:39:11.804Z,32.33
2022-08-27T17:41:16.162Z,32.41
2022-08-27T17:43:21.165Z,32.72
2022-08-27T17:45:23.272Z,32.30
2022-08-27T17:47:25.238Z,32.78
2022-08-27T17:49:27.237Z,32.81
2022-08-27T17:51:29.197Z,32.66
2022-08-27T17:53:30.930Z,32.70
2022-08-27T17:55:32.865Z,32.46
2022-08-27T17:57:40.558Z,32.94
2022-08-27T17:59:43.372Z,32.97
2022-08-27T18:01:45.438Z,33.59
2022-08-27T18:03:48.013Z,34.56
2022-08-27T18:05:50.032Z,34.77
2022-08-27T18:07:52.645Z,35.43
2022-08-27T18:09:55.454Z,35.52
2022-08-27T18:11:58.423Z,35.94
2022-08-27T18:14:04.687Z,35.79
2022-08-27T18:16:07.626Z,35.65
2022-08-27T18:18:13.424Z,35.42
2022-08-27T18:20:17.025Z,35.40
2022-08-27T18:22:18.584Z,35.43
2022-08-27T18:24:20.314Z,35.29
2022-08-27T18:26:24.052Z,35.49
2022-08-27T18:28:26.745Z,35.34
2022-08-27T18:30:28.522Z,35.23
2022-08-27T18:32:30.381Z,35.13
2022-08-27T18:34:32.579Z,35.58
2022-08-27T18:36:34.321Z,35.46
2022-08-27T18:38:36.027Z,35.58
2022-08-27T18:40:42.438Z,35.77
2022-08-27T18:42:45.001Z,35.81
2022-08-27T18:44:46.632Z,35.99
2022-08-27T18:46:48.293Z,36.22
2022-08-27T18:48:49.904Z,36.38
2022-08-27T18:50:55.732Z,36.14
2022-08-27T18:52:57.747Z,36.62
2022-08-27T18:54:59.567Z,36.55
2022-08-27T18:57:01.279Z,36.54
2022-08-27T18:59:02.941Z,36.76
2022-08-27T19:01:07.401Z,36.88
2022-08-27T19:03:10.499Z,37.11
2022-08-27T19:05:13.152Z,37.57
2022-08-27T19:07:15.059Z,37.51
2022-08-27T19:09:17.022Z,37.36
2022-08-27T19:11:19.021Z,37.67
2022-08-27T19:13:20.682Z,37.43
2022-08-27T19:15:22.537Z,38.64
2022-08-27T19:17:30.228Z,39.05
2022-08-27T19:19:31.897Z,39.60
2022-08-27T19:21:33.804Z,40.13
2022-08-27T19:23:36.439Z,40.46
2022-08-27T19:25:38.130Z,40.44
2022-08-27T19:27:40.126Z,40.39
2022-08-27T19:29:41.801Z,40.94
2022-08-27T19:31:43.616Z,40.79
2022-08-27T19:33:45.684Z,40.99
2022-08-27T19:35:47.336Z,41.11
2022-08-27T19:37:53.047Z,40.94
2022-08-27T19:39:55.765Z,40.58
2022-08-27T19:41:57.475Z,40.67
2022-08-27T19:43:59.166Z,41.02
2022-08-27T19:46:02.335Z,40.80
2022-08-27T19:48:06.346Z,40.58
2022-08-27T19:50:10.057Z,40.44
2022-08-27T19:52:12.962Z,40.80
2022-08-27T19:54:14.706Z,40.56
2022-08-27T19:56:16.487Z,40.61
2022-08-27T19:58:19.307Z,40.89
2022-08-27T20:00:22.588Z,41.12
2022-08-27T20:02:24.499Z,40.81
2022-08-27T20:04:30.408Z,40.81
2022-08-27T20:06:34.787Z,40.63
2022-08-27T20:08:36.645Z,40.66
2022-08-27T20:10:39.266Z,40.70
2022-08-27T20:12:41.002Z,40.93
2022-08-27T20:14:42.864Z,40.77
2022-08-27T20:16:45.436Z,40.73
2022-08-27T20:18:47.346Z,40.61
2022-08-27T20:20:49.066Z,40.24
2022-08-27T20:22:51.756Z,40.19
2022-08-27T20:24:53.448Z,40.23
2022-08-27T20:26:57.030Z,40.19
2022-08-27T20:28:59.899Z,40.14
2022-08-27T20:31:02.207Z,40.20
2022-08-27T20:33:03.898Z,40.35
2022-08-27T20:35:07.332Z,40.51
2022-08-27T20:37:08.966Z,41.45
2022-08-27T20:39:10.751Z,41.65
2022-08-27T20:41:12.616Z,42.10
2022-08-27T20:43:14.377Z,42.17
2022-08-27T20:45:17.175Z,42.35
2022-08-27T20:47:26.686Z,42.16
2022-08-27T20:49:28.810Z,42.33
2022-08-27T20:51:30.544Z,42.33
2022-08-27T20:53:53.214Z,42.86
2022-08-27T20:55:56.803Z,42.83
2022-08-27T20:58:17.091Z,43.76
2022-08-27T21:00:22.558Z,44.40
2022-08-27T21:02:27.050Z,44.52
2022-08-27T21:04:28.717Z,43.86
2022-08-27T21:06:33.392Z,43.80
2022-08-27T21:08:35.444Z,44.09
2022-08-27T21:10:37.200Z,43.54
2022-08-27T21:12:38.908Z,44.06
2022-08-27T21:14:40.759Z,43.96
2022-08-27T21:16:42.737Z,43.67
2022-08-27T21:18:44.666Z,43.73
2022-08-27T21:20:47.517Z,43.78
2022-08-27T21:22:51.223Z,43.65
2022-08-27T21:24:53.058Z,43.56
2022-08-27T21:26:55.579Z,43.80
2022-08-27T21:28:57.356Z,43.54
2022-08-27T21:30:59.035Z,43.57
2022-08-27T21:33:00.772Z,43.32
2022-08-27T21:35:02.530Z,43.42
2022-08-27T21:37:04.950Z,43.63
2022-08-27T21:39:06.819Z,43.71
2022-08-27T21:41:08.667Z,43.73
2022-08-27T21:43:10.337Z,44.07
2022-08-27T21:45:12.101Z,43.70
2022-08-27T21:47:13.865Z,44.18
2022-08-27T21:49:15.502Z,44.68
2022-08-27T21:51:24.491Z,44.61
2022-08-27T21:53:26.388Z,44.57
2022-08-27T21:55:28.046Z,44.24
2022-08-27T21:57:29.857Z,44.79
2022-08-27T21:59:40.437Z,45.19
2022-08-27T22:01:42.250Z,45.36
2022-08-27T22:03:50.706Z,45.33
2022-08-27T22:05:52.836Z,45.32
2022-08-27T22:07:54.484Z,45.34
2022-08-27T22:09:56.142Z,45.40
2022-08-27T22:11:58.017Z,45.59
2022-08-27T22:13:59.656Z,45.21
2022-08-27T22:16:01.826Z,45.19
2022-08-27T22:18:04.896Z,45.69
2022-08-27T22:20:08.855Z,45.37
2022-08-27T22:22:10.651Z,45.68
2022-08-27T22:24:12.837Z,45.95
2022-08-27T22:26:14.521Z,46.00
2022-08-27T22:28:16.914Z,45.79
2022-08-27T22:30:20.840Z,46.10
2022-08-27T22:32:22.466Z,46.98
2022-08-27T22:34:24.296Z,46.93
2022-08-27T22:36:26.069Z,46.71
2022-08-27T22:38:27.805Z,46.65
2022-08-27T22:40:30.682Z,46.46
2022-08-27T22:42:32.741Z,46.65
2022-08-27T22:44:38.400Z,47.14
2022-08-27T22:46:40.096Z,47.40
2022-08-27T22:48:42.120Z,47.67
2022-08-27T22:50:45.698Z,47.99
2022-08-27T22:52:47.883Z,48.55
2022-08-27T22:54:49.845Z,48.36
2022-08-27T22:56:56.486Z,48.72
2022-08-27T22:58:58.144Z,48.71
2022-08-27T23:00:59.857Z,48.93
2022-08-27T23:03:02.183Z,49.06
2022-08-27T23:05:06.690Z,48.95
2022-08-27T23:07:08.906Z,48.89
2022-08-27T23:09:10.599Z,49.00
2022-08-27T23:11:12.533Z,48.90
2022-08-27T23:13:14.540Z,49.14
2022-08-27T23:15:18.274Z,49.32
2022-08-27T23:17:21.448Z,49.52
2022-08-27T23:19:23.250Z,49.54
2022-08-27T23:21:24.935Z,49.54
2022-08-27T23:23:27.690Z,49.54
2022-08-27T23:25:51.254Z,49.88
2022-08-27T23:27:53.727Z,49.98
2022-08-27T23:30:01.941Z,49.91
2022-08-27T23:32:04.098Z,49.86
2022-08-27T23:34:05.746Z,50.24
2022-08-27T23:36:09.414Z,50.24
2022-08-27T23:38:11.541Z,50.50
2022-08-27T23:40:13.503Z,50.73
2022-08-27T23:42:18.492Z,51.07
2022-08-27T23:44:20.198Z,51.05
2022-08-27T23:46:21.881Z,51.18
2022-08-27T23:48:23.552Z,51.07
2022-08-27T23:50:33.804Z,51.42
2022-08-27T23:52:36.930Z,51.66
2022-08-27T23:54:38.586Z,51.71
2022-08-27T23:56:40.249Z,51.47
2022-08-27T23:58:41.918Z,51.76
